sensor_id;sensor_type;location;lat;lon;timestamp;P1;durP1;ratioP1;P2;durP2;ratioP2
7027;SDS011;3555;53.248;10.336;2022-07-25T00:01:02;6.13;;;4.40;;
7027;SDS011;3555;53.248;10.336;2022-07-25T00:03:29;6.15;;;4.70;;
7027;SDS011;3555;53.248;10.336;2022-07-25T00:05:56;5.93;;;4.20;;
7027;SDS011;3555;53.248;10.336;2022-07-25T00:08:23;7.35;;;4.40;;
7027;SDS011;3555;53.248;10.336;2022-07-25T00:10:50;7.13;;;3.95;;
7027;SDS011;3555;53.248;10.336;2022-07-25T00:13:18;4.70;;;4.00;;
7027;SDS011;3555;53.248;10.336;2022-07-25T00:15:45;4.72;;;3.70;;
7027;SDS011;3555;53.248;10.336;2022-07-25T00:18:11;7.35;;;4.32;;
7027;SDS011;3555;53.248;10.336;2022-07-25T00:20:38;5.35;;;4.20;;
7027;SDS011;3555;53.248;10.336;2022-07-25T00:23:05;8.35;;;4.13;;
7027;SDS011;3555;53.248;10.336;2022-07-25T00:25:32;5.05;;;3.75;;
7027;SDS011;3555;53.248;10.336;2022-07-25T00:27:59;5.47;;;3.88;;
7027;SDS011;3555;53.248;10.336;2022-07-25T00:30:27;6.85;;;3.92;;
7027;SDS011;3555;53.248;10.336;2022-07-25T00:32:54;5.65;;;3.53;;
7027;SDS011;3555;53.248;10.336;2022-07-25T00:35:20;5.30;;;4.13;;
7027;SDS011;3555;53.248;10.336;2022-07-25T00:37:47;5.07;;;4.03;;
7027;SDS011;3555;53.248;10.336;2022-07-25T00:40:14;7.40;;;4.07;;
7027;SDS011;3555;53.248;10.336;2022-07-25T00:42:41;5.57;;;4.00;;
7027;SDS011;3555;53.248;10.336;2022-07-25T00:45:08;8.13;;;4.00;;
7027;SDS011;3555;53.248;10.336;2022-07-25T00:47:37;5.07;;;4.05;;
7027;SDS011;3555;53.248;10.336;2022-07-25T00:50:04;7.47;;;4.00;;
7027;SDS011;3555;53.248;10.336;2022-07-25T00:52:31;5.28;;;3.70;;
7027;SDS011;3555;53.248;10.336;2022-07-25T00:54:58;5.68;;;3.80;;
7027;SDS011;3555;53.248;10.336;2022-07-25T00:57:26;8.27;;;3.78;;
7027;SDS011;3555;53.248;10.336;2022-07-25T00:59:52;4.93;;;3.80;;
7027;SDS011;3555;53.248;10.336;2022-07-25T01:02:19;5.65;;;4.00;;
7027;SDS011;3555;53.248;10.336;2022-07-25T01:04:48;7.15;;;3.72;;
7027;SDS011;3555;53.248;10.336;2022-07-25T01:07:15;6.13;;;3.38;;
7027;SDS011;3555;53.248;10.336;2022-07-25T01:09:42;5.15;;;3.80;;
7027;SDS011;3555;53.248;10.336;2022-07-25T01:12:09;9.02;;;4.45;;
7027;SDS011;3555;53.248;10.336;2022-07-25T01:14:36;5.13;;;4.05;;
7027;SDS011;3555;53.248;10.336;2022-07-25T01:17:03;4.43;;;3.70;;
7027;SDS011;3555;53.248;10.336;2022-07-25T01:19:30;5.22;;;3.83;;
7027;SDS011;3555;53.248;10.336;2022-07-25T01:21:58;7.78;;;4.00;;
7027;SDS011;3555;53.248;10.336;2022-07-25T01:24:25;6.63;;;3.85;;
7027;SDS011;3555;53.248;10.336;2022-07-25T01:26:52;5.80;;;3.55;;
7027;SDS011;3555;53.248;10.336;2022-07-25T01:29:19;4.50;;;3.90;;
7027;SDS011;3555;53.248;10.336;2022-07-25T01:31:46;4.35;;;3.72;;
7027;SDS011;3555;53.248;10.336;2022-07-25T01:34:12;6.32;;;3.85;;
7027;SDS011;3555;53.248;10.336;2022-07-25T01:36:39;6.47;;;3.78;;
7027;SDS011;3555;53.248;10.336;2022-07-25T01:39:07;8.43;;;4.10;;
7027;SDS011;3555;53.248;10.336;2022-07-25T01:41:34;5.88;;;3.65;;
7027;SDS011;3555;53.248;10.336;2022-07-25T01:44:01;5.65;;;3.47;;
7027;SDS011;3555;53.248;10.336;2022-07-25T01:46:28;7.28;;;3.50;;
7027;SDS011;3555;53.248;10.336;2022-07-25T01:48:55;5.32;;;3.42;;
7027;SDS011;3555;53.248;10.336;2022-07-25T01:51:22;6.90;;;3.92;;
7027;SDS011;3555;53.248;10.336;2022-07-25T01:53:48;8.13;;;3.38;;
7027;SDS011;3555;53.248;10.336;2022-07-25T01:56:17;7.32;;;3.50;;
7027;SDS011;3555;53.248;10.336;2022-07-25T01:58:43;5.35;;;3.30;;
7027;SDS011;3555;53.248;10.336;2022-07-25T02:01:10;4.50;;;3.13;;
7027;SDS011;3555;53.248;10.336;2022-07-25T02:03:37;5.55;;;3.20;;
7027;SDS011;3555;53.248;10.336;2022-07-25T02:06:05;4.28;;;3.40;;
7027;SDS011;3555;53.248;10.336;2022-07-25T02:08:32;6.75;;;3.13;;
7027;SDS011;3555;53.248;10.336;2022-07-25T02:10:59;3.90;;;3.33;;
7027;SDS011;3555;53.248;10.336;2022-07-25T02:13:28;7.07;;;3.20;;
7027;SDS011;3555;53.248;10.336;2022-07-25T02:15:55;6.22;;;3.40;;
7027;SDS011;3555;53.248;10.336;2022-07-25T02:18:21;7.88;;;3.10;;
7027;SDS011;3555;53.248;10.336;2022-07-25T02:20:48;13.23;;;2.95;;
7027;SDS011;3555;53.248;10.336;2022-07-25T02:23:15;5.50;;;3.15;;
7027;SDS011;3555;53.248;10.336;2022-07-25T02:25:42;7.20;;;3.38;;
7027;SDS011;3555;53.248;10.336;2022-07-25T02:28:09;3.67;;;2.90;;
7027;SDS011;3555;53.248;10.336;2022-07-25T02:30:37;5.93;;;3.10;;
7027;SDS011;3555;53.248;10.336;2022-07-25T02:33:04;6.10;;;2.90;;
7027;SDS011;3555;53.248;10.336;2022-07-25T02:35:31;5.30;;;3.35;;
7027;SDS011;3555;53.248;10.336;2022-07-25T02:37:58;6.45;;;2.80;;
7027;SDS011;3555;53.248;10.336;2022-07-25T02:40:25;8.35;;;3.08;;
7027;SDS011;3555;53.248;10.336;2022-07-25T02:42:52;4.68;;;2.90;;
7027;SDS011;3555;53.248;10.336;2022-07-25T02:45:19;6.72;;;2.90;;
7027;SDS011;3555;53.248;10.336;2022-07-25T02:47:47;4.18;;;3.03;;
7027;SDS011;3555;53.248;10.336;2022-07-25T02:50:14;3.33;;;2.78;;
7027;SDS011;3555;53.248;10.336;2022-07-25T02:52:41;6.30;;;2.80;;
7027;SDS011;3555;53.248;10.336;2022-07-25T02:55:08;7.47;;;2.67;;
7027;SDS011;3555;53.248;10.336;2022-07-25T02:57:36;6.10;;;3.10;;
7027;SDS011;3555;53.248;10.336;2022-07-25T03:00:03;3.22;;;2.50;;
7027;SDS011;3555;53.248;10.336;2022-07-25T03:02:31;6.65;;;3.13;;
7027;SDS011;3555;53.248;10.336;2022-07-25T03:04:59;3.45;;;2.95;;
7027;SDS011;3555;53.248;10.336;2022-07-25T03:07:27;6.43;;;2.90;;
7027;SDS011;3555;53.248;10.336;2022-07-25T03:09:53;4.78;;;2.90;;
7027;SDS011;3555;53.248;10.336;2022-07-25T03:12:20;5.85;;;3.00;;
7027;SDS011;3555;53.248;10.336;2022-07-25T03:14:47;5.35;;;2.65;;
7027;SDS011;3555;53.248;10.336;2022-07-25T03:17:14;3.50;;;2.45;;
7027;SDS011;3555;53.248;10.336;2022-07-25T03:19:41;6.55;;;2.95;;
7027;SDS011;3555;53.248;10.336;2022-07-25T03:22:09;3.40;;;2.53;;
7027;SDS011;3555;53.248;10.336;2022-07-25T03:24:36;6.40;;;2.60;;
7027;SDS011;3555;53.248;10.336;2022-07-25T03:27:03;5.68;;;2.65;;
7027;SDS011;3555;53.248;10.336;2022-07-25T03:29:29;4.80;;;2.58;;
7027;SDS011;3555;53.248;10.336;2022-07-25T03:31:56;3.90;;;2.58;;
7027;SDS011;3555;53.248;10.336;2022-07-25T03:34:24;5.88;;;2.63;;
7027;SDS011;3555;53.248;10.336;2022-07-25T03:36:51;3.28;;;2.45;;
7027;SDS011;3555;53.248;10.336;2022-07-25T03:39:19;6.72;;;2.70;;
7027;SDS011;3555;53.248;10.336;2022-07-25T03:41:46;3.75;;;2.92;;
7027;SDS011;3555;53.248;10.336;2022-07-25T03:44:13;3.55;;;2.42;;
7027;SDS011;3555;53.248;10.336;2022-07-25T03:46:40;6.35;;;3.00;;
7027;SDS011;3555;53.248;10.336;2022-07-25T03:49:07;5.40;;;2.58;;
7027;SDS011;3555;53.248;10.336;2022-07-25T03:51:33;6.90;;;2.78;;
7027;SDS011;3555;53.248;10.336;2022-07-25T03:54:00;3.10;;;2.60;;
7027;SDS011;3555;53.248;10.336;2022-07-25T03:56:28;3.90;;;2.90;;
7027;SDS011;3555;53.248;10.336;2022-07-25T03:58:56;5.50;;;2.58;;
7027;SDS011;3555;53.248;10.336;2022-07-25T04:01:23;2.22;;;2.03;;
7027;SDS011;3555;53.248;10.336;2022-07-25T04:03:50;3.17;;;2.72;;
7027;SDS011;3555;53.248;10.336;2022-07-25T04:06:17;3.42;;;2.50;;
7027;SDS011;3555;53.248;10.336;2022-07-25T04:08:43;4.90;;;2.70;;
7027;SDS011;3555;53.248;10.336;2022-07-25T04:11:10;7.60;;;2.63;;
7027;SDS011;3555;53.248;10.336;2022-07-25T04:13:38;3.17;;;2.42;;
7027;SDS011;3555;53.248;10.336;2022-07-25T04:16:06;2.65;;;2.38;;
7027;SDS011;3555;53.248;10.336;2022-07-25T04:18:33;5.53;;;2.40;;
7027;SDS011;3555;53.248;10.336;2022-07-25T04:21:00;3.50;;;2.40;;
7027;SDS011;3555;53.248;10.336;2022-07-25T04:23:27;2.88;;;2.50;;
7027;SDS011;3555;53.248;10.336;2022-07-25T04:25:55;3.53;;;2.13;;
7027;SDS011;3555;53.248;10.336;2022-07-25T04:28:22;6.50;;;2.58;;
7027;SDS011;3555;53.248;10.336;2022-07-25T04:30:51;4.65;;;2.58;;
7027;SDS011;3555;53.248;10.336;2022-07-25T04:33:18;3.42;;;2.15;;
7027;SDS011;3555;53.248;10.336;2022-07-25T04:35:46;4.50;;;2.42;;
7027;SDS011;3555;53.248;10.336;2022-07-25T04:38:13;6.97;;;2.20;;
7027;SDS011;3555;53.248;10.336;2022-07-25T04:40:40;4.75;;;2.55;;
7027;SDS011;3555;53.248;10.336;2022-07-25T04:43:07;3.13;;;2.35;;
7027;SDS011;3555;53.248;10.336;2022-07-25T04:45:34;3.15;;;2.30;;
7027;SDS011;3555;53.248;10.336;2022-07-25T04:48:03;3.80;;;1.98;;
7027;SDS011;3555;53.248;10.336;2022-07-25T04:50:30;5.32;;;2.28;;
7027;SDS011;3555;53.248;10.336;2022-07-25T04:52:57;2.70;;;2.10;;
7027;SDS011;3555;53.248;10.336;2022-07-25T04:55:24;4.60;;;2.65;;
7027;SDS011;3555;53.248;10.336;2022-07-25T04:57:50;4.07;;;2.30;;
7027;SDS011;3555;53.248;10.336;2022-07-25T05:00:17;2.97;;;2.17;;
7027;SDS011;3555;53.248;10.336;2022-07-25T05:02:44;6.13;;;2.30;;
7027;SDS011;3555;53.248;10.336;2022-07-25T05:05:12;3.03;;;2.10;;
7027;SDS011;3555;53.248;10.336;2022-07-25T05:07:39;4.18;;;2.30;;
7027;SDS011;3555;53.248;10.336;2022-07-25T05:10:06;2.47;;;2.13;;
7027;SDS011;3555;53.248;10.336;2022-07-25T05:12:33;3.65;;;2.40;;
7027;SDS011;3555;53.248;10.336;2022-07-25T05:15:00;3.65;;;2.35;;
7027;SDS011;3555;53.248;10.336;2022-07-25T05:17:27;5.63;;;2.50;;
7027;SDS011;3555;53.248;10.336;2022-07-25T05:19:54;4.03;;;2.33;;
7027;SDS011;3555;53.248;10.336;2022-07-25T05:22:23;4.15;;;2.13;;
7027;SDS011;3555;53.248;10.336;2022-07-25T05:24:50;2.95;;;2.10;;
7027;SDS011;3555;53.248;10.336;2022-07-25T05:27:17;5.00;;;2.20;;
7027;SDS011;3555;53.248;10.336;2022-07-25T05:29:44;3.42;;;2.17;;
7027;SDS011;3555;53.248;10.336;2022-07-25T05:32:11;4.38;;;2.15;;
7027;SDS011;3555;53.248;10.336;2022-07-25T05:34:37;3.75;;;2.42;;
7027;SDS011;3555;53.248;10.336;2022-07-25T05:37:04;3.50;;;2.00;;
7027;SDS011;3555;53.248;10.336;2022-07-25T05:39:32;6.05;;;2.40;;
7027;SDS011;3555;53.248;10.336;2022-07-25T05:42:01;5.70;;;1.80;;
7027;SDS011;3555;53.248;10.336;2022-07-25T05:44:28;3.45;;;2.03;;
7027;SDS011;3555;53.248;10.336;2022-07-25T05:46:55;2.85;;;2.20;;
7027;SDS011;3555;53.248;10.336;2022-07-25T05:49:21;5.57;;;2.33;;
7027;SDS011;3555;53.248;10.336;2022-07-25T05:51:48;5.70;;;2.20;;
7027;SDS011;3555;53.248;10.336;2022-07-25T05:54:15;2.78;;;2.00;;
7027;SDS011;3555;53.248;10.336;2022-07-25T05:56:43;6.03;;;2.28;;
7027;SDS011;3555;53.248;10.336;2022-07-25T05:59:10;3.25;;;2.10;;
7027;SDS011;3555;53.248;10.336;2022-07-25T06:01:37;3.47;;;2.30;;
7027;SDS011;3555;53.248;10.336;2022-07-25T06:04:04;3.92;;;2.15;;
7027;SDS011;3555;53.248;10.336;2022-07-25T06:06:31;4.20;;;2.08;;
7027;SDS011;3555;53.248;10.336;2022-07-25T06:08:58;2.63;;;2.10;;
7027;SDS011;3555;53.248;10.336;2022-07-25T06:11:24;4.57;;;2.13;;
7027;SDS011;3555;53.248;10.336;2022-07-25T06:13:53;4.13;;;2.25;;
7027;SDS011;3555;53.248;10.336;2022-07-25T06:16:20;3.70;;;2.03;;
7027;SDS011;3555;53.248;10.336;2022-07-25T06:18:47;4.40;;;2.15;;
7027;SDS011;3555;53.248;10.336;2022-07-25T06:21:14;2.47;;;1.90;;
7027;SDS011;3555;53.248;10.336;2022-07-25T06:23:41;4.18;;;2.30;;
7027;SDS011;3555;53.248;10.336;2022-07-25T06:26:08;5.03;;;2.67;;
7027;SDS011;3555;53.248;10.336;2022-07-25T06:28:35;2.67;;;1.98;;
7027;SDS011;3555;53.248;10.336;2022-07-25T06:31:04;3.13;;;2.10;;
7027;SDS011;3555;53.248;10.336;2022-07-25T06:33:31;3.83;;;2.05;;
7027;SDS011;3555;53.248;10.336;2022-07-25T06:35:58;3.97;;;2.13;;
7027;SDS011;3555;53.248;10.336;2022-07-25T06:38:24;3.65;;;2.35;;
7027;SDS011;3555;53.248;10.336;2022-07-25T06:40:51;2.95;;;2.30;;
7027;SDS011;3555;53.248;10.336;2022-07-25T06:43:18;5.15;;;2.53;;
7027;SDS011;3555;53.248;10.336;2022-07-25T06:45:45;6.05;;;2.70;;
7027;SDS011;3555;53.248;10.336;2022-07-25T06:48:13;3.05;;;2.38;;
7027;SDS011;3555;53.248;10.336;2022-07-25T06:50:40;3.75;;;2.40;;
7027;SDS011;3555;53.248;10.336;2022-07-25T06:53:07;4.40;;;3.00;;
7027;SDS011;3555;53.248;10.336;2022-07-25T06:55:34;3.95;;;2.47;;
7027;SDS011;3555;53.248;10.336;2022-07-25T06:58:01;4.32;;;2.70;;
7027;SDS011;3555;53.248;10.336;2022-07-25T07:00:28;5.22;;;3.03;;
7027;SDS011;3555;53.248;10.336;2022-07-25T07:02:55;5.25;;;2.92;;
7027;SDS011;3555;53.248;10.336;2022-07-25T07:05:27;3.92;;;2.95;;
7027;SDS011;3555;53.248;10.336;2022-07-25T07:07:55;5.10;;;3.17;;
7027;SDS011;3555;53.248;10.336;2022-07-25T07:10:22;5.60;;;2.97;;
7027;SDS011;3555;53.248;10.336;2022-07-25T07:12:49;3.58;;;2.83;;
7027;SDS011;3555;53.248;10.336;2022-07-25T07:15:27;6.68;;;3.13;;
7027;SDS011;3555;53.248;10.336;2022-07-25T07:17:53;5.70;;;3.45;;
7027;SDS011;3555;53.248;10.336;2022-07-25T07:20:20;3.63;;;2.80;;
7027;SDS011;3555;53.248;10.336;2022-07-25T07:22:48;4.30;;;3.50;;
7027;SDS011;3555;53.248;10.336;2022-07-25T07:25:16;4.55;;;3.67;;
7027;SDS011;3555;53.248;10.336;2022-07-25T07:27:45;4.40;;;3.40;;
7027;SDS011;3555;53.248;10.336;2022-07-25T07:30:13;3.85;;;3.10;;
7027;SDS011;3555;53.248;10.336;2022-07-25T07:32:40;3.75;;;3.10;;
7027;SDS011;3555;53.248;10.336;2022-07-25T07:35:07;3.70;;;3.15;;
7027;SDS011;3555;53.248;10.336;2022-07-25T07:37:35;5.25;;;3.17;;
7027;SDS011;3555;53.248;10.336;2022-07-25T07:40:03;6.65;;;3.65;;
7027;SDS011;3555;53.248;10.336;2022-07-25T07:42:36;4.85;;;3.92;;
7027;SDS011;3555;53.248;10.336;2022-07-25T07:45:09;8.07;;;3.67;;
7027;SDS011;3555;53.248;10.336;2022-07-25T07:47:40;4.53;;;3.55;;
7027;SDS011;3555;53.248;10.336;2022-07-25T07:50:07;5.10;;;3.50;;
7027;SDS011;3555;53.248;10.336;2022-07-25T07:52:35;4.43;;;3.67;;
7027;SDS011;3555;53.248;10.336;2022-07-25T07:55:04;3.88;;;3.30;;
7027;SDS011;3555;53.248;10.336;2022-07-25T07:57:49;5.18;;;3.97;;
7027;SDS011;3555;53.248;10.336;2022-07-25T08:00:16;6.75;;;3.50;;
7027;SDS011;3555;53.248;10.336;2022-07-25T08:02:44;6.57;;;4.18;;
7027;SDS011;3555;53.248;10.336;2022-07-25T08:05:12;4.40;;;3.63;;
7027;SDS011;3555;53.248;10.336;2022-07-25T08:07:44;4.80;;;3.67;;
7027;SDS011;3555;53.248;10.336;2022-07-25T08:10:12;5.55;;;3.70;;
7027;SDS011;3555;53.248;10.336;2022-07-25T08:12:39;5.15;;;4.00;;
7027;SDS011;3555;53.248;10.336;2022-07-25T08:15:07;4.60;;;3.53;;
7027;SDS011;3555;53.248;10.336;2022-07-25T08:17:35;4.82;;;3.75;;
7027;SDS011;3555;53.248;10.336;2022-07-25T08:20:02;4.55;;;3.75;;
7027;SDS011;3555;53.248;10.336;2022-07-25T08:22:36;6.45;;;3.63;;
7027;SDS011;3555;53.248;10.336;2022-07-25T08:25:05;7.57;;;4.10;;
7027;SDS011;3555;53.248;10.336;2022-07-25T08:27:34;7.38;;;4.03;;
7027;SDS011;3555;53.248;10.336;2022-07-25T08:30:01;9.05;;;4.13;;
7027;SDS011;3555;53.248;10.336;2022-07-25T08:32:29;5.75;;;4.90;;
7027;SDS011;3555;53.248;10.336;2022-07-25T08:34:56;6.25;;;4.40;;
7027;SDS011;3555;53.248;10.336;2022-07-25T08:37:23;6.00;;;4.60;;
7027;SDS011;3555;53.248;10.336;2022-07-25T08:39:50;8.80;;;4.95;;
7027;SDS011;3555;53.248;10.336;2022-07-25T08:42:17;5.43;;;4.60;;
7027;SDS011;3555;53.248;10.336;2022-07-25T08:44:48;7.55;;;4.45;;
7027;SDS011;3555;53.248;10.336;2022-07-25T08:47:20;10.48;;;4.97;;
7027;SDS011;3555;53.248;10.336;2022-07-25T08:49:48;5.15;;;4.22;;
7027;SDS011;3555;53.248;10.336;2022-07-25T08:52:15;5.80;;;4.70;;
7027;SDS011;3555;53.248;10.336;2022-07-25T08:54:44;5.78;;;5.00;;
7027;SDS011;3555;53.248;10.336;2022-07-25T08:57:12;5.72;;;4.95;;
7027;SDS011;3555;53.248;10.336;2022-07-25T08:59:39;6.53;;;4.93;;
7027;SDS011;3555;53.248;10.336;2022-07-25T09:02:08;5.72;;;4.55;;
7027;SDS011;3555;53.248;10.336;2022-07-25T09:04:38;5.20;;;4.40;;
7027;SDS011;3555;53.248;10.336;2022-07-25T09:07:05;7.07;;;4.13;;
7027;SDS011;3555;53.248;10.336;2022-07-25T09:09:32;6.95;;;4.20;;
7027;SDS011;3555;53.248;10.336;2022-07-25T09:12:00;7.07;;;4.20;;
7027;SDS011;3555;53.248;10.336;2022-07-25T09:14:27;6.82;;;4.20;;
7027;SDS011;3555;53.248;10.336;2022-07-25T09:16:54;7.15;;;4.07;;
7027;SDS011;3555;53.248;10.336;2022-07-25T09:19:24;8.07;;;4.85;;
7027;SDS011;3555;53.248;10.336;2022-07-25T09:21:58;5.82;;;4.28;;
7027;SDS011;3555;53.248;10.336;2022-07-25T09:24:26;4.82;;;4.35;;
7027;SDS011;3555;53.248;10.336;2022-07-25T09:26:55;5.25;;;4.30;;
7027;SDS011;3555;53.248;10.336;2022-07-25T09:29:24;4.43;;;4.03;;
7027;SDS011;3555;53.248;10.336;2022-07-25T09:31:52;4.57;;;4.10;;
7027;SDS011;3555;53.248;10.336;2022-07-25T09:34:34;7.32;;;4.35;;
7027;SDS011;3555;53.248;10.336;2022-07-25T09:37:02;4.10;;;3.70;;
7027;SDS011;3555;53.248;10.336;2022-07-25T09:39:38;4.40;;;4.00;;
7027;SDS011;3555;53.248;10.336;2022-07-25T09:42:13;7.55;;;4.10;;
7027;SDS011;3555;53.248;10.336;2022-07-25T09:44:40;5.95;;;4.30;;
7027;SDS011;3555;53.248;10.336;2022-07-25T09:47:11;6.13;;;3.95;;
7027;SDS011;3555;53.248;10.336;2022-07-25T09:49:42;5.10;;;4.20;;
7027;SDS011;3555;53.248;10.336;2022-07-25T09:52:11;6.13;;;3.85;;
7027;SDS011;3555;53.248;10.336;2022-07-25T09:54:38;7.22;;;3.80;;
7027;SDS011;3555;53.248;10.336;2022-07-25T09:57:05;9.70;;;4.03;;
7027;SDS011;3555;53.248;10.336;2022-07-25T09:59:32;6.95;;;4.13;;
7027;SDS011;3555;53.248;10.336;2022-07-25T10:02:04;5.95;;;4.05;;
7027;SDS011;3555;53.248;10.336;2022-07-25T10:04:40;4.47;;;4.05;;
7027;SDS011;3555;53.248;10.336;2022-07-25T10:07:13;5.57;;;3.90;;
7027;SDS011;3555;53.248;10.336;2022-07-25T10:09:42;6.70;;;3.95;;
7027;SDS011;3555;53.248;10.336;2022-07-25T10:12:11;7.60;;;4.05;;
7027;SDS011;3555;53.248;10.336;2022-07-25T10:14:39;4.97;;;4.03;;
7027;SDS011;3555;53.248;10.336;2022-07-25T10:17:07;4.72;;;4.10;;
7027;SDS011;3555;53.248;10.336;2022-07-25T10:19:34;4.88;;;4.05;;
7027;SDS011;3555;53.248;10.336;2022-07-25T10:22:06;4.88;;;4.00;;
7027;SDS011;3555;53.248;10.336;2022-07-25T10:24:33;4.43;;;3.78;;
7027;SDS011;3555;53.248;10.336;2022-07-25T10:27:06;5.45;;;3.80;;
7027;SDS011;3555;53.248;10.336;2022-07-25T10:29:35;6.00;;;3.88;;
7027;SDS011;3555;53.248;10.336;2022-07-25T10:32:06;6.13;;;3.88;;
7027;SDS011;3555;53.248;10.336;2022-07-25T10:34:34;4.80;;;3.80;;
7027;SDS011;3555;53.248;10.336;2022-07-25T10:37:09;6.63;;;4.22;;
7027;SDS011;3555;53.248;10.336;2022-07-25T10:39:39;4.60;;;3.90;;
7027;SDS011;3555;53.248;10.336;2022-07-25T10:42:11;5.18;;;3.88;;
7027;SDS011;3555;53.248;10.336;2022-07-25T10:44:39;5.57;;;3.47;;
7027;SDS011;3555;53.248;10.336;2022-07-25T10:47:07;3.80;;;3.40;;
7027;SDS011;3555;53.248;10.336;2022-07-25T10:49:36;4.55;;;3.60;;
7027;SDS011;3555;53.248;10.336;2022-07-25T10:52:04;4.50;;;3.58;;
7027;SDS011;3555;53.248;10.336;2022-07-25T10:54:33;5.82;;;3.72;;
7027;SDS011;3555;53.248;10.336;2022-07-25T10:57:01;5.80;;;3.90;;
7027;SDS011;3555;53.248;10.336;2022-07-25T10:59:31;5.32;;;3.72;;
7027;SDS011;3555;53.248;10.336;2022-07-25T11:01:59;3.97;;;3.25;;
7027;SDS011;3555;53.248;10.336;2022-07-25T11:04:27;7.07;;;4.20;;
7027;SDS011;3555;53.248;10.336;2022-07-25T11:06:54;6.82;;;4.22;;
7027;SDS011;3555;53.248;10.336;2022-07-25T11:09:22;5.75;;;3.90;;
7027;SDS011;3555;53.248;10.336;2022-07-25T11:11:53;3.85;;;3.45;;
7027;SDS011;3555;53.248;10.336;2022-07-25T11:14:22;4.13;;;3.60;;
7027;SDS011;3555;53.248;10.336;2022-07-25T11:16:51;4.63;;;3.65;;
7027;SDS011;3555;53.248;10.336;2022-07-25T11:19:20;6.18;;;3.88;;
7027;SDS011;3555;53.248;10.336;2022-07-25T11:21:49;4.63;;;3.78;;
7027;SDS011;3555;53.248;10.336;2022-07-25T11:24:17;5.97;;;3.17;;
7027;SDS011;3555;53.248;10.336;2022-07-25T11:26:47;5.00;;;3.38;;
7027;SDS011;3555;53.248;10.336;2022-07-25T11:29:21;6.63;;;3.80;;
7027;SDS011;3555;53.248;10.336;2022-07-25T11:31:54;4.78;;;3.38;;
7027;SDS011;3555;53.248;10.336;2022-07-25T11:34:24;4.63;;;3.72;;
7027;SDS011;3555;53.248;10.336;2022-07-25T11:36:53;6.45;;;3.60;;
7027;SDS011;3555;53.248;10.336;2022-07-25T11:39:21;6.50;;;3.83;;
7027;SDS011;3555;53.248;10.336;2022-07-25T11:42:00;4.15;;;3.40;;
7027;SDS011;3555;53.248;10.336;2022-07-25T11:44:33;4.05;;;3.53;;
7027;SDS011;3555;53.248;10.336;2022-07-25T11:47:01;6.82;;;4.20;;
7027;SDS011;3555;53.248;10.336;2022-07-25T11:49:28;7.25;;;3.67;;
7027;SDS011;3555;53.248;10.336;2022-07-25T11:51:55;4.32;;;3.40;;
7027;SDS011;3555;53.248;10.336;2022-07-25T11:54:22;3.90;;;3.47;;
7027;SDS011;3555;53.248;10.336;2022-07-25T11:56:49;5.88;;;3.60;;
7027;SDS011;3555;53.248;10.336;2022-07-25T11:59:16;3.95;;;3.20;;
7027;SDS011;3555;53.248;10.336;2022-07-25T12:01:44;5.30;;;3.78;;
7027;SDS011;3555;53.248;10.336;2022-07-25T12:04:12;4.43;;;3.65;;
7027;SDS011;3555;53.248;10.336;2022-07-25T12:06:41;4.10;;;3.70;;
7027;SDS011;3555;53.248;10.336;2022-07-25T12:09:09;5.03;;;3.60;;
7027;SDS011;3555;53.248;10.336;2022-07-25T12:11:37;5.28;;;3.60;;
7027;SDS011;3555;53.248;10.336;2022-07-25T12:14:04;5.35;;;3.53;;
7027;SDS011;3555;53.248;10.336;2022-07-25T12:16:31;5.05;;;3.70;;
7027;SDS011;3555;53.248;10.336;2022-07-25T12:19:00;4.40;;;3.78;;
7027;SDS011;3555;53.248;10.336;2022-07-25T12:21:27;5.00;;;3.70;;
7027;SDS011;3555;53.248;10.336;2022-07-25T12:23:53;4.70;;;3.70;;
7027;SDS011;3555;53.248;10.336;2022-07-25T12:26:20;5.25;;;4.00;;
7027;SDS011;3555;53.248;10.336;2022-07-25T12:28:47;5.65;;;3.70;;
7027;SDS011;3555;53.248;10.336;2022-07-25T12:31:14;6.32;;;3.85;;
7027;SDS011;3555;53.248;10.336;2022-07-25T12:33:41;5.72;;;3.65;;
7027;SDS011;3555;53.248;10.336;2022-07-25T12:36:11;4.57;;;3.88;;
7027;SDS011;3555;53.248;10.336;2022-07-25T12:38:38;4.60;;;3.78;;
7027;SDS011;3555;53.248;10.336;2022-07-25T12:41:05;3.67;;;3.35;;
7027;SDS011;3555;53.248;10.336;2022-07-25T12:43:32;5.05;;;3.97;;
7027;SDS011;3555;53.248;10.336;2022-07-25T12:45:59;6.65;;;3.97;;
7027;SDS011;3555;53.248;10.336;2022-07-25T12:48:26;7.03;;;4.13;;
7027;SDS011;3555;53.248;10.336;2022-07-25T12:50:53;4.50;;;3.95;;
7027;SDS011;3555;53.248;10.336;2022-07-25T12:53:21;4.07;;;3.67;;
7027;SDS011;3555;53.248;10.336;2022-07-25T12:55:48;4.05;;;3.65;;
7027;SDS011;3555;53.248;10.336;2022-07-25T12:58:15;4.65;;;4.25;;
7027;SDS011;3555;53.248;10.336;2022-07-25T13:00:42;4.93;;;4.03;;
7027;SDS011;3555;53.248;10.336;2022-07-25T13:03:11;6.30;;;3.97;;
7027;SDS011;3555;53.248;10.336;2022-07-25T13:05:39;4.72;;;3.97;;
7027;SDS011;3555;53.248;10.336;2022-07-25T13:08:06;6.15;;;3.95;;
7027;SDS011;3555;53.248;10.336;2022-07-25T13:10:34;5.75;;;4.30;;
7027;SDS011;3555;53.248;10.336;2022-07-25T13:13:01;5.55;;;4.30;;
7027;SDS011;3555;53.248;10.336;2022-07-25T13:15:28;5.80;;;3.90;;
7027;SDS011;3555;53.248;10.336;2022-07-25T13:17:55;4.20;;;3.80;;
7027;SDS011;3555;53.248;10.336;2022-07-25T13:20:22;6.00;;;3.80;;
7027;SDS011;3555;53.248;10.336;2022-07-25T13:22:48;6.78;;;4.25;;
7027;SDS011;3555;53.248;10.336;2022-07-25T13:25:15;4.55;;;4.13;;
7027;SDS011;3555;53.248;10.336;2022-07-25T13:27:44;6.07;;;4.00;;
7027;SDS011;3555;53.248;10.336;2022-07-25T13:30:13;6.15;;;4.32;;
7027;SDS011;3555;53.248;10.336;2022-07-25T13:32:40;5.13;;;4.20;;
7027;SDS011;3555;53.248;10.336;2022-07-25T13:35:07;7.30;;;4.20;;
7027;SDS011;3555;53.248;10.336;2022-07-25T13:37:34;5.22;;;3.92;;
7027;SDS011;3555;53.248;10.336;2022-07-25T13:40:01;5.05;;;3.80;;
7027;SDS011;3555;53.248;10.336;2022-07-25T13:42:28;4.85;;;3.90;;
7027;SDS011;3555;53.248;10.336;2022-07-25T13:44:56;9.40;;;4.53;;
7027;SDS011;3555;53.248;10.336;2022-07-25T13:47:23;6.05;;;3.95;;
7027;SDS011;3555;53.248;10.336;2022-07-25T13:49:50;6.60;;;4.18;;
7027;SDS011;3555;53.248;10.336;2022-07-25T13:52:17;8.77;;;4.50;;
7027;SDS011;3555;53.248;10.336;2022-07-25T13:54:44;6.82;;;4.60;;
7027;SDS011;3555;53.248;10.336;2022-07-25T13:57:11;4.75;;;4.25;;
7027;SDS011;3555;53.248;10.336;2022-07-25T13:59:37;5.30;;;4.10;;
7027;SDS011;3555;53.248;10.336;2022-07-25T14:02:06;8.98;;;4.18;;
7027;SDS011;3555;53.248;10.336;2022-07-25T14:04:33;9.80;;;4.22;;
7027;SDS011;3555;53.248;10.336;2022-07-25T14:07:00;9.95;;;4.35;;
7027;SDS011;3555;53.248;10.336;2022-07-25T14:09:27;6.38;;;4.03;;
7027;SDS011;3555;53.248;10.336;2022-07-25T14:11:53;6.55;;;4.13;;
7027;SDS011;3555;53.248;10.336;2022-07-25T14:14:20;4.47;;;4.07;;
7027;SDS011;3555;53.248;10.336;2022-07-25T14:16:47;17.67;;;6.45;;
7027;SDS011;3555;53.248;10.336;2022-07-25T14:19:15;8.95;;;4.50;;
7027;SDS011;3555;53.248;10.336;2022-07-25T14:21:42;22.70;;;6.00;;
7027;SDS011;3555;53.248;10.336;2022-07-25T14:24:09;6.70;;;4.05;;
7027;SDS011;3555;53.248;10.336;2022-07-25T14:26:36;7.07;;;4.40;;
7027;SDS011;3555;53.248;10.336;2022-07-25T14:29:04;7.80;;;4.50;;
7027;SDS011;3555;53.248;10.336;2022-07-25T14:31:35;16.27;;;7.53;;
7027;SDS011;3555;53.248;10.336;2022-07-25T14:34:03;5.13;;;4.10;;
7027;SDS011;3555;53.248;10.336;2022-07-25T14:36:32;5.68;;;4.55;;
7027;SDS011;3555;53.248;10.336;2022-07-25T14:39:00;4.85;;;4.05;;
7027;SDS011;3555;53.248;10.336;2022-07-25T14:41:27;9.75;;;4.10;;
7027;SDS011;3555;53.248;10.336;2022-07-25T14:43:54;5.32;;;4.15;;
7027;SDS011;3555;53.248;10.336;2022-07-25T14:46:21;11.70;;;5.10;;
7027;SDS011;3555;53.248;10.336;2022-07-25T14:48:48;8.43;;;4.50;;
7027;SDS011;3555;53.248;10.336;2022-07-25T14:51:16;8.10;;;4.35;;
7027;SDS011;3555;53.248;10.336;2022-07-25T14:53:45;7.45;;;4.75;;
7027;SDS011;3555;53.248;10.336;2022-07-25T14:56:12;4.53;;;4.10;;
7027;SDS011;3555;53.248;10.336;2022-07-25T14:58:39;6.07;;;4.63;;
7027;SDS011;3555;53.248;10.336;2022-07-25T15:01:05;4.85;;;4.07;;
7027;SDS011;3555;53.248;10.336;2022-07-25T15:03:33;6.25;;;4.18;;